ARG1856 SABE-SAVY
Flight info
| Callsign | ARG1856 |
|---|---|
| Flight time | 1h 37m |
| Altitude | 38000 |
| Route | PTA8 GBE UT694 XODIK UW18 SANBU UT693 ILPOT |
| Aircraft | B38M/M-SDE1FGHILORVWXY/HB1 |
Departure
| Time | 2026-05-07 12:28 |
|---|---|
| Airport | Aeroparque Jorge Newbery (SABE) |
Arrival
| Time | 2026-05-07 14:06 |
|---|---|
| Airport | El Tehuelche Airport (SAVY) |
| Time | Latitude | Longitude | Altitude | Speed | Heading |
|---|---|---|---|---|---|
| 2026-05-07 12:20 | -34.56101 | -58.40902 | 29 ft | 0 kts | 34° |
| 2026-05-07 12:21 | -34.56115 | -58.40914 | 30 ft | 3 kts | 38° |
| 2026-05-07 12:22 | -34.56128 | -58.40928 | 30 ft | 2 kts | 51° |
| 2026-05-07 12:22 | -34.56135 | -58.40941 | 30 ft | 2 kts | 73° |
| 2026-05-07 12:22 | -34.56135 | -58.40953 | 30 ft | 2 kts | 106° |
| 2026-05-07 12:22 | -34.56131 | -58.40965 | 30 ft | 1 kts | 127° |
| 2026-05-07 12:23 | -34.56126 | -58.40972 | 30 ft | 0 kts | 130° |
| 2026-05-07 12:25 | -34.56127 | -58.40970 | 30 ft | 1 kts | 130° |
| 2026-05-07 12:25 | -34.56140 | -58.40948 | 29 ft | 5 kts | 125° |
| 2026-05-07 12:25 | -34.56157 | -58.40903 | 29 ft | 7 kts | 103° |
| 2026-05-07 12:26 | -34.56161 | -58.40837 | 29 ft | 9 kts | 119° |
| 2026-05-07 12:26 | -34.56198 | -58.40767 | 29 ft | 11 kts | 123° |
| 2026-05-07 12:26 | -34.56245 | -58.40682 | 29 ft | 13 kts | 124° |
| 2026-05-07 12:26 | -34.56300 | -58.40582 | 29 ft | 14 kts | 124° |
| 2026-05-07 12:27 | -34.56371 | -58.40485 | 29 ft | 17 kts | 139° |
| 2026-05-07 12:27 | -34.56462 | -58.40390 | 29 ft | 14 kts | 139° |
| 2026-05-07 12:27 | -34.56543 | -58.40374 | 28 ft | 14 kts | 213° |
| 2026-05-07 12:27 | -34.56534 | -58.40481 | 28 ft | 15 kts | 304° |
| 2026-05-07 12:28 | -34.56390 | -58.40741 | 28 ft | 77 kts | 303° |
| 2026-05-07 12:28 | -34.55943 | -58.41560 | 28 ft | 153 kts | 303° |
| 2026-05-07 12:28 | -34.55263 | -58.42810 | 333 ft | 199 kts | 302° |
| 2026-05-07 12:28 | -34.54316 | -58.44210 | 1082 ft | 228 kts | 312° |
| 2026-05-07 12:29 | -34.52978 | -58.45355 | 2254 ft | 240 kts | 329° |
| 2026-05-07 12:29 | -34.51334 | -58.46096 | 3008 ft | 275 kts | 349° |
| 2026-05-07 12:29 | -34.49202 | -58.46033 | 2804 ft | 339 kts | 17° |
| 2026-05-07 12:29 | -34.47059 | -58.44805 | 3785 ft | 339 kts | 50° |
| 2026-05-07 12:30 | -34.45789 | -58.42706 | 6048 ft | 281 kts | 80° |
| 2026-05-07 12:30 | -34.45423 | -58.40485 | 7712 ft | 262 kts | 90° |
| 2026-05-07 12:30 | -34.45605 | -58.38280 | 8664 ft | 270 kts | 115° |
| 2026-05-07 12:30 | -34.46679 | -58.36366 | 9371 ft | 282 kts | 136° |
| 2026-05-07 12:31 | -34.47998 | -58.34552 | 9974 ft | 300 kts | 129° |
| 2026-05-07 12:31 | -34.49239 | -58.32415 | 10491 ft | 320 kts | 127° |
| 2026-05-07 12:31 | -34.50532 | -58.30133 | 11077 ft | 336 kts | 126° |
| 2026-05-07 12:31 | -34.51906 | -58.27782 | 11722 ft | 349 kts | 123° |
| 2026-05-07 12:32 | -34.53119 | -58.25165 | 12338 ft | 362 kts | 126° |
| 2026-05-07 12:32 | -34.54929 | -58.23075 | 13104 ft | 361 kts | 151° |
| 2026-05-07 12:32 | -34.57119 | -58.21514 | 13795 ft | 370 kts | 152° |
| 2026-05-07 12:32 | -34.59343 | -58.19830 | 14379 ft | 380 kts | 151° |
| 2026-05-07 12:33 | -34.63895 | -58.16311 | 15593 ft | 398 kts | 150° |
| 2026-05-07 12:33 | -34.66247 | -58.14480 | 16256 ft | 404 kts | 150° |
| 2026-05-07 12:33 | -34.68652 | -58.12639 | 16786 ft | 415 kts | 150° |
| 2026-05-07 12:34 | -34.71079 | -58.10710 | 17428 ft | 421 kts | 148° |
| 2026-05-07 12:34 | -34.73561 | -58.08747 | 17955 ft | 430 kts | 148° |
| 2026-05-07 12:34 | -34.76136 | -58.07004 | 18533 ft | 431 kts | 154° |
| 2026-05-07 12:34 | -34.78670 | -58.04970 | 18973 ft | 442 kts | 146° |
| 2026-05-07 12:35 | -34.81216 | -58.02841 | 19571 ft | 445 kts | 148° |
| 2026-05-07 12:35 | -34.83804 | -58.00744 | 20100 ft | 450 kts | 148° |
| 2026-05-07 12:35 | -34.86435 | -57.98641 | 20651 ft | 455 kts | 149° |
| 2026-05-07 12:35 | -34.89104 | -57.96528 | 21187 ft | 460 kts | 149° |
| 2026-05-07 12:36 | -34.91827 | -57.94452 | 21701 ft | 463 kts | 156° |
| 2026-05-07 12:36 | -34.94815 | -57.93075 | 22219 ft | 457 kts | 174° |
| 2026-05-07 12:36 | -34.97945 | -57.92700 | 22647 ft | 447 kts | 191° |
| 2026-05-07 12:36 | -35.00968 | -57.93268 | 23137 ft | 434 kts | 208° |
| 2026-05-07 12:37 | -35.03704 | -57.94673 | 23499 ft | 424 kts | 219° |
| 2026-05-07 12:37 | -35.06323 | -57.96361 | 23902 ft | 426 kts | 220° |
| 2026-05-07 12:37 | -35.08922 | -57.98138 | 24324 ft | 429 kts | 221° |
| 2026-05-07 12:37 | -35.11517 | -57.99966 | 24732 ft | 432 kts | 222° |
| 2026-05-07 12:38 | -35.14121 | -58.01828 | 25144 ft | 435 kts | 222° |
| 2026-05-07 12:38 | -35.16747 | -58.03726 | 25564 ft | 439 kts | 222° |
| 2026-05-07 12:38 | -35.19383 | -58.05638 | 25973 ft | 442 kts | 222° |
| 2026-05-07 12:38 | -35.22008 | -58.07547 | 26369 ft | 446 kts | 222° |
| 2026-05-07 12:39 | -35.24692 | -58.09500 | 26780 ft | 449 kts | 222° |
| 2026-05-07 12:39 | -35.27386 | -58.11463 | 27178 ft | 452 kts | 222° |
| 2026-05-07 12:39 | -35.30105 | -58.13446 | 27572 ft | 455 kts | 222° |
| 2026-05-07 12:39 | -35.32834 | -58.15437 | 27964 ft | 459 kts | 222° |
| 2026-05-07 12:40 | -35.35582 | -58.17444 | 28353 ft | 462 kts | 222° |
| 2026-05-07 12:40 | -35.38348 | -58.19466 | 28744 ft | 465 kts | 222° |
| 2026-05-07 12:40 | -35.41139 | -58.21507 | 29112 ft | 468 kts | 222° |
| 2026-05-07 12:40 | -35.43941 | -58.23559 | 29488 ft | 471 kts | 222° |
| 2026-05-07 12:41 | -35.46757 | -58.25622 | 29824 ft | 474 kts | 222° |
| 2026-05-07 12:41 | -35.49569 | -58.27684 | 30103 ft | 477 kts | 222° |
| 2026-05-07 12:41 | -35.52429 | -58.29783 | 30370 ft | 481 kts | 222° |
| 2026-05-07 12:41 | -35.55317 | -58.31905 | 30657 ft | 484 kts | 222° |
| 2026-05-07 12:42 | -35.58223 | -58.34041 | 30927 ft | 487 kts | 222° |
| 2026-05-07 12:42 | -35.61140 | -58.36188 | 31191 ft | 491 kts | 222° |
| 2026-05-07 12:42 | -35.64083 | -58.38355 | 31460 ft | 494 kts | 222° |
| 2026-05-07 12:42 | -35.67050 | -58.40542 | 31729 ft | 497 kts | 222° |
| 2026-05-07 12:43 | -35.70032 | -58.42742 | 31989 ft | 501 kts | 222° |
| 2026-05-07 12:43 | -35.72992 | -58.44926 | 32246 ft | 504 kts | 222° |
| 2026-05-07 12:43 | -35.75981 | -58.47190 | 32489 ft | 505 kts | 223° |
| 2026-05-07 12:43 | -35.78972 | -58.49498 | 32743 ft | 509 kts | 223° |
| 2026-05-07 12:44 | -35.81985 | -58.51812 | 32991 ft | 512 kts | 223° |
| 2026-05-07 12:44 | -35.85019 | -58.54144 | 33232 ft | 515 kts | 223° |
| 2026-05-07 12:44 | -35.88061 | -58.56482 | 33518 ft | 517 kts | 223° |
| 2026-05-07 12:44 | -35.91123 | -58.58839 | 33837 ft | 518 kts | 223° |
| 2026-05-07 12:45 | -35.94180 | -58.61193 | 34156 ft | 518 kts | 223° |
| 2026-05-07 12:45 | -35.97240 | -58.63553 | 34502 ft | 517 kts | 223° |
| 2026-05-07 12:45 | -36.00295 | -58.65911 | 34859 ft | 516 kts | 223° |
| 2026-05-07 12:45 | -36.03335 | -58.68260 | 35194 ft | 515 kts | 223° |
| 2026-05-07 12:46 | -36.06373 | -58.70608 | 35536 ft | 514 kts | 223° |
| 2026-05-07 12:46 | -36.09371 | -58.72928 | 35865 ft | 513 kts | 223° |
| 2026-05-07 12:46 | -36.12389 | -58.75266 | 36176 ft | 512 kts | 223° |
| 2026-05-07 12:46 | -36.15405 | -58.77605 | 36500 ft | 511 kts | 223° |
| 2026-05-07 12:47 | -36.18420 | -58.79944 | 36811 ft | 510 kts | 223° |
| 2026-05-07 12:47 | -36.21424 | -58.82278 | 37112 ft | 509 kts | 223° |
| 2026-05-07 12:47 | -36.24427 | -58.84612 | 37404 ft | 508 kts | 223° |
| 2026-05-07 12:47 | -36.27417 | -58.86939 | 37652 ft | 508 kts | 223° |
| 2026-05-07 12:48 | -36.33420 | -58.91618 | 37670 ft | 510 kts | 223° |
| 2026-05-07 12:48 | -36.39394 | -58.96281 | 37675 ft | 509 kts | 222° |
| 2026-05-07 12:49 | -36.45396 | -59.00976 | 37674 ft | 509 kts | 222° |
| 2026-05-07 12:49 | -36.51380 | -59.05665 | 37678 ft | 509 kts | 222° |
| 2026-05-07 12:50 | -36.57365 | -59.10364 | 37676 ft | 508 kts | 222° |
| 2026-05-07 12:50 | -36.63344 | -59.15066 | 37676 ft | 507 kts | 222° |
| 2026-05-07 12:51 | -36.69303 | -59.19762 | 37682 ft | 507 kts | 221° |
| 2026-05-07 12:51 | -36.75264 | -59.24468 | 37678 ft | 506 kts | 221° |
| 2026-05-07 12:52 | -36.81216 | -59.29175 | 37674 ft | 506 kts | 221° |
| 2026-05-07 12:52 | -36.87160 | -59.33886 | 37676 ft | 505 kts | 221° |
| 2026-05-07 12:53 | -36.90123 | -59.36237 | 38631 ft | 505 kts | 221° |
| 2026-05-07 12:53 | -36.93089 | -59.38593 | 39890 ft | 505 kts | 221° |
| 2026-05-07 12:53 | -36.98973 | -59.43273 | 39888 ft | 504 kts | 221° |
| 2026-05-07 12:54 | -37.04892 | -59.47989 | 39887 ft | 503 kts | 221° |
| 2026-05-07 12:54 | -37.10806 | -59.52709 | 39888 ft | 503 kts | 221° |
| 2026-05-07 12:55 | -37.16701 | -59.57425 | 39886 ft | 502 kts | 222° |
| 2026-05-07 12:55 | -37.22470 | -59.62309 | 39885 ft | 500 kts | 222° |
| 2026-05-07 12:56 | -37.28196 | -59.67150 | 38039 ft | 500 kts | 222° |
| 2026-05-07 12:56 | -37.31083 | -59.69593 | 37672 ft | 500 kts | 222° |
| 2026-05-07 12:56 | -37.33961 | -59.72030 | 37660 ft | 499 kts | 222° |
| 2026-05-07 12:57 | -37.39723 | -59.76917 | 37672 ft | 499 kts | 222° |
| 2026-05-07 12:57 | -37.45487 | -59.81814 | 37672 ft | 499 kts | 222° |
| 2026-05-07 12:58 | -37.51241 | -59.86713 | 37661 ft | 499 kts | 221° |
| 2026-05-07 12:58 | -37.56989 | -59.91616 | 37668 ft | 498 kts | 221° |
| 2026-05-07 12:59 | -37.62727 | -59.96519 | 37671 ft | 498 kts | 221° |
| 2026-05-07 12:59 | -37.68424 | -60.01395 | 37668 ft | 497 kts | 221° |
| 2026-05-07 13:00 | -37.74143 | -60.06302 | 37671 ft | 497 kts | 221° |
| 2026-05-07 13:00 | -37.79854 | -60.11209 | 37668 ft | 496 kts | 221° |
| 2026-05-07 13:01 | -37.85546 | -60.16110 | 37665 ft | 495 kts | 221° |
| 2026-05-07 13:01 | -37.91226 | -60.21010 | 37670 ft | 494 kts | 221° |
| 2026-05-07 13:02 | -37.95945 | -60.25088 | 37682 ft | 493 kts | 221° |
| 2026-05-07 13:02 | -38.01605 | -60.29988 | 37664 ft | 492 kts | 221° |
| 2026-05-07 13:03 | -38.08174 | -60.35684 | 37667 ft | 491 kts | 221° |
| 2026-05-07 13:03 | -38.13684 | -60.40744 | 37659 ft | 480 kts | 231° |
| 2026-05-07 13:04 | -38.15166 | -60.42844 | 37655 ft | 468 kts | 242° |
| 2026-05-07 13:04 | -38.16741 | -60.46377 | 37685 ft | 456 kts | 252° |
| 2026-05-07 13:04 | -38.19369 | -60.53724 | 37676 ft | 456 kts | 253° |
| 2026-05-07 13:05 | -38.21863 | -60.61073 | 37682 ft | 455 kts | 253° |
| 2026-05-07 13:05 | -38.24329 | -60.68478 | 37672 ft | 454 kts | 253° |
| 2026-05-07 13:06 | -38.26785 | -60.75885 | 37678 ft | 454 kts | 253° |
| 2026-05-07 13:06 | -38.29231 | -60.83281 | 37680 ft | 453 kts | 253° |
| 2026-05-07 13:07 | -38.31671 | -60.90679 | 37682 ft | 452 kts | 252° |
| 2026-05-07 13:07 | -38.34104 | -60.98076 | 37686 ft | 452 kts | 252° |
| 2026-05-07 13:08 | -38.36528 | -61.05462 | 37692 ft | 451 kts | 252° |
| 2026-05-07 13:08 | -38.38926 | -61.12794 | 37686 ft | 451 kts | 252° |
| 2026-05-07 13:09 | -38.41334 | -61.20171 | 37694 ft | 450 kts | 252° |
| 2026-05-07 13:09 | -38.43736 | -61.27546 | 37695 ft | 450 kts | 251° |
| 2026-05-07 13:10 | -38.46129 | -61.34915 | 37700 ft | 450 kts | 251° |
| 2026-05-07 13:10 | -38.48522 | -61.42303 | 37703 ft | 450 kts | 251° |
| 2026-05-07 13:11 | -38.50910 | -61.49695 | 37708 ft | 451 kts | 251° |
| 2026-05-07 13:11 | -38.53285 | -61.57065 | 37705 ft | 451 kts | 251° |
| 2026-05-07 13:12 | -38.55674 | -61.64501 | 37708 ft | 452 kts | 251° |
| 2026-05-07 13:12 | -38.58060 | -61.71946 | 37717 ft | 453 kts | 251° |
| 2026-05-07 13:13 | -38.60450 | -61.79420 | 37704 ft | 455 kts | 251° |
| 2026-05-07 13:13 | -38.62838 | -61.86910 | 37696 ft | 456 kts | 251° |
| 2026-05-07 13:14 | -38.65230 | -61.94435 | 37685 ft | 457 kts | 251° |
| 2026-05-07 13:14 | -38.67623 | -62.01978 | 37669 ft | 457 kts | 251° |
| 2026-05-07 13:15 | -38.70014 | -62.09529 | 37671 ft | 458 kts | 250° |
| 2026-05-07 13:15 | -38.71506 | -62.13137 | 37652 ft | 461 kts | 237° |
| 2026-05-07 13:15 | -38.73643 | -62.16148 | 37664 ft | 467 kts | 222° |
| 2026-05-07 13:16 | -38.76415 | -62.18463 | 37670 ft | 473 kts | 210° |
| 2026-05-07 13:16 | -38.79293 | -62.20394 | 37660 ft | 474 kts | 210° |
| 2026-05-07 13:16 | -38.85181 | -62.24257 | 37676 ft | 475 kts | 210° |
| 2026-05-07 13:17 | -38.91085 | -62.28059 | 37690 ft | 475 kts | 209° |
| 2026-05-07 13:17 | -38.97001 | -62.31863 | 37706 ft | 475 kts | 209° |
| 2026-05-07 13:18 | -39.02908 | -62.35669 | 37720 ft | 475 kts | 210° |
| 2026-05-07 13:18 | -39.08810 | -62.39478 | 37730 ft | 474 kts | 210° |
| 2026-05-07 13:19 | -39.14702 | -62.43288 | 37731 ft | 474 kts | 210° |
| 2026-05-07 13:19 | -39.20596 | -62.47107 | 37733 ft | 473 kts | 210° |
| 2026-05-07 13:20 | -39.26474 | -62.50922 | 37728 ft | 473 kts | 210° |
| 2026-05-07 13:20 | -39.32314 | -62.54720 | 37736 ft | 473 kts | 210° |
| 2026-05-07 13:21 | -39.38218 | -62.58566 | 37732 ft | 472 kts | 210° |
| 2026-05-07 13:21 | -39.44041 | -62.62368 | 37732 ft | 472 kts | 210° |
| 2026-05-07 13:22 | -39.49888 | -62.66203 | 37738 ft | 471 kts | 211° |
| 2026-05-07 13:22 | -39.55671 | -62.70213 | 37740 ft | 470 kts | 211° |
| 2026-05-07 13:23 | -39.61439 | -62.74202 | 37738 ft | 470 kts | 211° |
| 2026-05-07 13:23 | -39.67203 | -62.78196 | 37741 ft | 469 kts | 211° |
| 2026-05-07 13:24 | -39.72964 | -62.82195 | 37747 ft | 469 kts | 211° |
| 2026-05-07 13:24 | -39.78707 | -62.86189 | 37740 ft | 468 kts | 211° |
| 2026-05-07 13:25 | -39.84446 | -62.90187 | 37742 ft | 468 kts | 211° |
| 2026-05-07 13:25 | -39.90151 | -62.94170 | 37744 ft | 467 kts | 211° |
| 2026-05-07 13:26 | -39.95883 | -62.98178 | 37747 ft | 467 kts | 211° |
| 2026-05-07 13:26 | -40.01600 | -63.02184 | 37745 ft | 466 kts | 211° |
| 2026-05-07 13:27 | -40.07316 | -63.06197 | 37750 ft | 465 kts | 211° |
| 2026-05-07 13:27 | -40.12974 | -63.10177 | 37750 ft | 465 kts | 211° |
| 2026-05-07 13:28 | -40.18665 | -63.14188 | 37756 ft | 464 kts | 211° |
| 2026-05-07 13:28 | -40.24344 | -63.18199 | 37755 ft | 464 kts | 211° |
| 2026-05-07 13:29 | -40.30025 | -63.22218 | 37753 ft | 463 kts | 211° |
| 2026-05-07 13:29 | -40.35686 | -63.26230 | 37753 ft | 462 kts | 211° |
| 2026-05-07 13:30 | -40.41351 | -63.30254 | 37758 ft | 462 kts | 211° |
| 2026-05-07 13:30 | -40.46960 | -63.34245 | 37753 ft | 461 kts | 211° |
| 2026-05-07 13:31 | -40.52599 | -63.38265 | 37758 ft | 460 kts | 211° |
| 2026-05-07 13:31 | -40.58223 | -63.42282 | 37756 ft | 460 kts | 211° |
| 2026-05-07 13:32 | -40.63842 | -63.46304 | 37765 ft | 459 kts | 211° |
| 2026-05-07 13:32 | -40.69438 | -63.50317 | 37756 ft | 458 kts | 211° |
| 2026-05-07 13:33 | -40.75041 | -63.54342 | 37768 ft | 457 kts | 211° |
| 2026-05-07 13:33 | -40.80621 | -63.58358 | 37759 ft | 456 kts | 211° |
| 2026-05-07 13:34 | -40.88914 | -63.64339 | 37775 ft | 446 kts | 211° |
| 2026-05-07 13:35 | -40.94426 | -63.68019 | 37730 ft | 444 kts | 209° |
| 2026-05-07 13:35 | -40.97159 | -63.69797 | 37080 ft | 443 kts | 210° |
| 2026-05-07 13:35 | -40.99918 | -63.71627 | 36345 ft | 445 kts | 209° |
| 2026-05-07 13:35 | -41.02691 | -63.73458 | 35656 ft | 445 kts | 209° |
| 2026-05-07 13:36 | -41.05505 | -63.75311 | 34966 ft | 446 kts | 209° |
| 2026-05-07 13:36 | -41.08248 | -63.77128 | 34311 ft | 447 kts | 208° |
| 2026-05-07 13:36 | -41.11010 | -63.78999 | 33741 ft | 445 kts | 208° |
| 2026-05-07 13:36 | -41.13781 | -63.80799 | 33010 ft | 445 kts | 207° |
| 2026-05-07 13:37 | -41.16549 | -63.82633 | 32287 ft | 445 kts | 209° |
| 2026-05-07 13:37 | -41.19318 | -63.84496 | 31623 ft | 450 kts | 208° |
| 2026-05-07 13:37 | -41.22140 | -63.86334 | 30956 ft | 452 kts | 208° |
| 2026-05-07 13:37 | -41.24954 | -63.88209 | 30250 ft | 454 kts | 208° |
| 2026-05-07 13:38 | -41.27791 | -63.90074 | 29571 ft | 456 kts | 208° |
| 2026-05-07 13:38 | -41.30640 | -63.91961 | 28813 ft | 458 kts | 208° |
| 2026-05-07 13:38 | -41.33483 | -63.93858 | 28079 ft | 459 kts | 208° |
| 2026-05-07 13:38 | -41.36349 | -63.95761 | 27356 ft | 460 kts | 207° |
| 2026-05-07 13:39 | -41.39214 | -63.97669 | 26662 ft | 461 kts | 207° |
| 2026-05-07 13:39 | -41.42085 | -63.99586 | 25973 ft | 461 kts | 207° |
| 2026-05-07 13:39 | -41.44957 | -64.01503 | 25313 ft | 462 kts | 206° |
| 2026-05-07 13:39 | -41.47829 | -64.03426 | 24668 ft | 461 kts | 206° |
| 2026-05-07 13:40 | -41.50686 | -64.05337 | 24047 ft | 457 kts | 206° |
| 2026-05-07 13:40 | -41.53511 | -64.07231 | 23422 ft | 453 kts | 206° |
| 2026-05-07 13:40 | -41.56312 | -64.09110 | 22734 ft | 448 kts | 206° |
| 2026-05-07 13:40 | -41.59088 | -64.10977 | 22044 ft | 443 kts | 206° |
| 2026-05-07 13:41 | -41.61828 | -64.12816 | 21339 ft | 436 kts | 206° |
| 2026-05-07 13:41 | -41.64438 | -64.14575 | 20732 ft | 417 kts | 206° |
| 2026-05-07 13:41 | -41.66950 | -64.16267 | 20461 ft | 386 kts | 206° |
| 2026-05-07 13:41 | -41.69438 | -64.17942 | 18897 ft | 411 kts | 207° |
| 2026-05-07 13:42 | -41.71921 | -64.19618 | 18401 ft | 393 kts | 207° |
| 2026-05-07 13:42 | -41.74327 | -64.21243 | 17778 ft | 380 kts | 207° |
| 2026-05-07 13:42 | -41.76651 | -64.22811 | 17106 ft | 369 kts | 207° |
| 2026-05-07 13:42 | -41.78913 | -64.24340 | 16440 ft | 359 kts | 207° |
| 2026-05-07 13:43 | -41.81108 | -64.25823 | 15844 ft | 348 kts | 208° |
| 2026-05-07 13:43 | -41.83235 | -64.27265 | 15363 ft | 336 kts | 208° |
| 2026-05-07 13:43 | -41.85310 | -64.28675 | 14886 ft | 333 kts | 208° |
| 2026-05-07 13:43 | -41.87377 | -64.30076 | 14420 ft | 332 kts | 208° |
| 2026-05-07 13:44 | -41.89433 | -64.31473 | 14051 ft | 328 kts | 208° |
| 2026-05-07 13:44 | -41.91453 | -64.32844 | 13741 ft | 323 kts | 208° |
| 2026-05-07 13:44 | -41.93443 | -64.34195 | 13442 ft | 318 kts | 208° |
| 2026-05-07 13:44 | -41.95405 | -64.35540 | 13081 ft | 315 kts | 208° |
| 2026-05-07 13:45 | -41.97345 | -64.36856 | 12725 ft | 308 kts | 208° |
| 2026-05-07 13:45 | -41.99219 | -64.38126 | 12419 ft | 294 kts | 208° |
| 2026-05-07 13:45 | -42.01014 | -64.39353 | 12105 ft | 287 kts | 208° |
| 2026-05-07 13:45 | -42.02784 | -64.40558 | 11790 ft | 283 kts | 207° |
| 2026-05-07 13:46 | -42.04530 | -64.41752 | 11481 ft | 280 kts | 207° |
| 2026-05-07 13:46 | -42.06258 | -64.42932 | 11186 ft | 277 kts | 207° |
| 2026-05-07 13:46 | -42.07962 | -64.44097 | 10881 ft | 273 kts | 207° |
| 2026-05-07 13:46 | -42.09631 | -64.45253 | 10629 ft | 268 kts | 208° |
| 2026-05-07 13:47 | -42.11285 | -64.46400 | 10393 ft | 267 kts | 208° |
| 2026-05-07 13:47 | -42.12934 | -64.47532 | 10147 ft | 267 kts | 206° |
| 2026-05-07 13:47 | -42.14595 | -64.48653 | 9908 ft | 266 kts | 207° |
| 2026-05-07 13:47 | -42.16238 | -64.49772 | 9699 ft | 264 kts | 206° |
| 2026-05-07 13:48 | -42.17873 | -64.50887 | 9490 ft | 262 kts | 206° |
| 2026-05-07 13:48 | -42.19486 | -64.51995 | 9224 ft | 259 kts | 206° |
| 2026-05-07 13:48 | -42.21054 | -64.53068 | 8978 ft | 253 kts | 206° |
| 2026-05-07 13:48 | -42.22603 | -64.54129 | 8754 ft | 246 kts | 206° |
| 2026-05-07 13:49 | -42.24106 | -64.55165 | 8503 ft | 240 kts | 206° |
| 2026-05-07 13:49 | -42.25572 | -64.56165 | 8267 ft | 233 kts | 206° |
| 2026-05-07 13:49 | -42.26992 | -64.57162 | 8045 ft | 226 kts | 206° |
| 2026-05-07 13:49 | -42.28387 | -64.58117 | 7779 ft | 222 kts | 205° |
| 2026-05-07 13:50 | -42.29746 | -64.59049 | 7563 ft | 216 kts | 206° |
| 2026-05-07 13:50 | -42.31070 | -64.59966 | 7330 ft | 211 kts | 205° |
| 2026-05-07 13:50 | -42.32357 | -64.60843 | 7149 ft | 204 kts | 205° |
| 2026-05-07 13:50 | -42.33188 | -64.61419 | 7048 ft | 202 kts | 206° |
| 2026-05-07 13:51 | -42.34444 | -64.62284 | 6837 ft | 202 kts | 204° |
| 2026-05-07 13:51 | -42.35693 | -64.63148 | 6621 ft | 201 kts | 205° |
| 2026-05-07 13:51 | -42.36930 | -64.64012 | 6422 ft | 199 kts | 206° |
| 2026-05-07 13:51 | -42.38165 | -64.64848 | 6204 ft | 198 kts | 204° |
| 2026-05-07 13:52 | -42.39401 | -64.65642 | 5988 ft | 196 kts | 204° |
| 2026-05-07 13:52 | -42.40638 | -64.66412 | 5778 ft | 193 kts | 204° |
| 2026-05-07 13:52 | -42.41845 | -64.67186 | 5570 ft | 191 kts | 204° |
| 2026-05-07 13:52 | -42.43033 | -64.67952 | 5391 ft | 186 kts | 204° |
| 2026-05-07 13:53 | -42.44175 | -64.68689 | 5209 ft | 178 kts | 204° |
| 2026-05-07 13:53 | -42.45284 | -64.69406 | 5039 ft | 176 kts | 205° |
| 2026-05-07 13:53 | -42.46384 | -64.70116 | 4913 ft | 174 kts | 205° |
| 2026-05-07 13:53 | -42.47482 | -64.70826 | 4721 ft | 174 kts | 205° |
| 2026-05-07 13:54 | -42.48566 | -64.71526 | 4600 ft | 172 kts | 205° |
| 2026-05-07 13:54 | -42.49626 | -64.72211 | 4407 ft | 169 kts | 205° |
| 2026-05-07 13:54 | -42.50674 | -64.72889 | 4217 ft | 164 kts | 205° |
| 2026-05-07 13:54 | -42.51688 | -64.73546 | 4025 ft | 159 kts | 206° |
| 2026-05-07 13:55 | -42.52681 | -64.74188 | 3846 ft | 157 kts | 206° |
| 2026-05-07 13:55 | -42.53671 | -64.74829 | 3692 ft | 158 kts | 206° |
| 2026-05-07 13:55 | -42.54663 | -64.75471 | 3522 ft | 158 kts | 206° |
| 2026-05-07 13:55 | -42.55655 | -64.76114 | 3312 ft | 157 kts | 206° |
| 2026-05-07 13:56 | -42.56628 | -64.76745 | 3204 ft | 154 kts | 206° |
| 2026-05-07 13:56 | -42.57575 | -64.77358 | 3104 ft | 148 kts | 206° |
| 2026-05-07 13:56 | -42.58484 | -64.77949 | 3024 ft | 144 kts | 206° |
| 2026-05-07 13:56 | -42.59385 | -64.78534 | 2958 ft | 142 kts | 207° |
| 2026-05-07 13:57 | -42.60283 | -64.79115 | 2942 ft | 143 kts | 207° |
| 2026-05-07 13:57 | -42.61179 | -64.79697 | 2901 ft | 143 kts | 207° |
| 2026-05-07 13:57 | -42.61972 | -64.80438 | 2797 ft | 139 kts | 228° |
| 2026-05-07 13:57 | -42.62516 | -64.81520 | 2713 ft | 135 kts | 230° |
| 2026-05-07 13:58 | -42.63031 | -64.82566 | 2649 ft | 134 kts | 231° |
| 2026-05-07 13:58 | -42.63546 | -64.83628 | 2606 ft | 135 kts | 231° |
| 2026-05-07 13:58 | -42.64046 | -64.84671 | 2501 ft | 129 kts | 232° |
| 2026-05-07 13:58 | -42.64519 | -64.85665 | 2428 ft | 124 kts | 232° |
| 2026-05-07 13:59 | -42.64983 | -64.86646 | 2352 ft | 123 kts | 232° |
| 2026-05-07 13:59 | -42.65426 | -64.87571 | 2245 ft | 109 kts | 232° |
| 2026-05-07 13:59 | -42.65823 | -64.88412 | 2163 ft | 104 kts | 233° |
| 2026-05-07 13:59 | -42.66206 | -64.89239 | 2064 ft | 103 kts | 233° |
| 2026-05-07 14:00 | -42.66587 | -64.90059 | 1957 ft | 102 kts | 234° |
| 2026-05-07 14:00 | -42.66966 | -64.90875 | 1871 ft | 102 kts | 234° |
| 2026-05-07 14:00 | -42.67346 | -64.91694 | 1790 ft | 103 kts | 235° |
| 2026-05-07 14:00 | -42.67727 | -64.92516 | 1698 ft | 103 kts | 235° |
| 2026-05-07 14:01 | -42.68108 | -64.93339 | 1582 ft | 104 kts | 235° |
| 2026-05-07 14:01 | -42.68494 | -64.94173 | 1488 ft | 105 kts | 236° |
| 2026-05-07 14:01 | -42.68884 | -64.95016 | 1407 ft | 106 kts | 236° |
| 2026-05-07 14:01 | -42.69274 | -64.95858 | 1325 ft | 108 kts | 236° |
| 2026-05-07 14:02 | -42.69675 | -64.96725 | 1246 ft | 109 kts | 236° |
| 2026-05-07 14:02 | -42.70077 | -64.97593 | 1165 ft | 108 kts | 235° |
| 2026-05-07 14:02 | -42.70476 | -64.98457 | 1101 ft | 108 kts | 235° |
| 2026-05-07 14:02 | -42.70876 | -64.99325 | 1049 ft | 108 kts | 234° |
| 2026-05-07 14:03 | -42.71287 | -65.00186 | 1042 ft | 109 kts | 234° |
| 2026-05-07 14:03 | -42.71707 | -65.01043 | 986 ft | 110 kts | 237° |
| 2026-05-07 14:03 | -42.72144 | -65.01894 | 1023 ft | 111 kts | 236° |
| 2026-05-07 14:03 | -42.72565 | -65.02774 | 1019 ft | 111 kts | 243° |
| 2026-05-07 14:04 | -42.72930 | -65.03697 | 929 ft | 110 kts | 244° |
| 2026-05-07 14:04 | -42.73271 | -65.04617 | 887 ft | 108 kts | 237° |
| 2026-05-07 14:04 | -42.73686 | -65.05463 | 827 ft | 107 kts | 233° |
| 2026-05-07 14:04 | -42.74102 | -65.06298 | 697 ft | 106 kts | 236° |
| 2026-05-07 14:05 | -42.74489 | -65.07179 | 636 ft | 110 kts | 237° |
| 2026-05-07 14:05 | -42.74891 | -65.08065 | 587 ft | 110 kts | 233° |
| 2026-05-07 14:05 | -42.75299 | -65.08932 | 477 ft | 111 kts | 233° |
| 2026-05-07 14:05 | -42.75660 | -65.09693 | 448 ft | 65 kts | 237° |
| 2026-05-07 14:06 | -42.75763 | -65.09918 | 440 ft | 6 kts | 233° |
| 2026-05-07 14:06 | -42.75789 | -65.09977 | 442 ft | 3 kts | 305° |
| 2026-05-07 14:06 | -42.75784 | -65.09978 | 432 ft | 0 kts | 354° |
| 2026-05-07 14:06 | -42.75776 | -65.09972 | 435 ft | 2 kts | 36° |
| 2026-05-07 14:07 | -42.75749 | -65.09929 | 439 ft | 12 kts | 32° |
| 2026-05-07 14:07 | -42.75682 | -65.09942 | 448 ft | 9 kts | 331° |
| 2026-05-07 14:07 | -42.75629 | -65.09986 | 450 ft | 9 kts | 327° |
| 2026-05-07 14:07 | -42.75582 | -65.10024 | 450 ft | 6 kts | 341° |
| 2026-05-07 14:08 | -42.75555 | -65.10024 | 450 ft | 2 kts | 358° |
| 2026-05-07 14:08 | -42.75541 | -65.10030 | 450 ft | 0 kts | 320° |
| 2026-05-07 14:08 | -42.75541 | -65.10036 | 450 ft | 0 kts | 276° |
| 2026-05-07 14:13 | -42.75542 | -65.10036 | 450 ft | 0 kts | 276° |
| 2026-05-07 14:15 | -42.75542 | -65.10035 | 450 ft | 0 kts | 276° |